East Jordan, Michigan
Current Conditions -  °F | °C
As of 8:15 PM on Monday 26 Jan 2015 (Local Time) from KCVX Reporting Station
Broken Clouds Broken Clouds  
Wind Chill: 11°   Ceiling: 6000
Heat Index: 18°   Visibility: 10mi
Dew Point: 10°   Wind: 5mph
Humidity: 71%   Direction: 110°ESE
Pressure: 30.02"   Gusts: NA
Location:  45.16°N, 85.12°W
Report Text: KCVX 270115Z AUTO 11004KT 10SM BKN060 M08/M12 A3002 RMK AO2 T10771121
Loading
Personal Weather Stations






























Interactive Weather Map New forecast layout! Learn more

10-Day Weather Forecast

Advertisements
Track Severe Weather on mobile